createdAt,value
2018-12-14T00:01:23.240Z,12.13
2018-12-14T00:03:49.479Z,11.30
2018-12-14T00:06:15.743Z,11.80
2018-12-14T00:08:41.996Z,11.00
2018-12-14T00:11:08.599Z,11.87
2018-12-14T00:13:35.582Z,11.87
2018-12-14T00:16:02.652Z,11.77
2018-12-14T00:18:28.924Z,12.23
2018-12-14T00:20:55.152Z,12.23
2018-12-14T00:23:21.431Z,12.40
2018-12-14T00:25:48.471Z,11.33
2018-12-14T00:28:14.715Z,12.13
2018-12-14T00:30:41.874Z,11.80
2018-12-14T00:33:08.133Z,12.40
2018-12-14T00:35:34.413Z,12.83
2018-12-14T00:38:00.643Z,12.00
2018-12-14T00:40:26.911Z,11.30
2018-12-14T00:42:53.898Z,11.67
2018-12-14T00:45:20.157Z,12.13
2018-12-14T00:47:46.437Z,11.77
2018-12-14T00:50:12.689Z,12.13
2018-12-14T00:52:39.291Z,11.73
2018-12-14T00:55:05.552Z,12.17
2018-12-14T00:57:31.784Z,12.37
2018-12-14T00:59:58.028Z,12.73
2018-12-14T01:02:28.232Z,11.97
2018-12-14T01:04:54.498Z,12.03
2018-12-14T01:07:21.474Z,12.30
2018-12-14T01:09:48.084Z,12.07
2018-12-14T01:12:15.068Z,12.23
2018-12-14T01:14:41.306Z,12.23
2018-12-14T01:17:07.582Z,11.67
2018-12-14T01:19:34.933Z,12.87
2018-12-14T01:22:01.948Z,13.50
2018-12-14T01:24:28.181Z,12.43
2018-12-14T01:26:54.487Z,12.63
2018-12-14T01:29:20.748Z,11.87
2018-12-14T01:31:47.097Z,12.23
2018-12-14T01:34:14.084Z,12.77
2018-12-14T01:36:40.371Z,12.00
2018-12-14T01:39:06.633Z,12.53
2018-12-14T01:41:32.885Z,12.00
2018-12-14T01:43:59.141Z,13.57
2018-12-14T01:46:25.792Z,13.40
2018-12-14T01:48:52.789Z,13.33
2018-12-14T01:51:19.065Z,12.80
2018-12-14T01:53:45.320Z,13.13
2018-12-14T01:56:11.573Z,12.83
2018-12-14T01:58:37.856Z,13.17
2018-12-14T02:01:04.848Z,13.33
2018-12-14T02:03:31.309Z,12.60
2018-12-14T02:05:57.558Z,12.80
2018-12-14T02:08:24.601Z,12.73
2018-12-14T02:10:51.574Z,13.17
2018-12-14T02:13:17.842Z,13.10
2018-12-14T02:15:44.103Z,12.23
2018-12-14T02:18:10.351Z,12.07
2018-12-14T02:20:37.680Z,12.67
2018-12-14T02:23:04.665Z,12.60
2018-12-14T02:25:30.939Z,12.43
2018-12-14T02:27:57.933Z,13.13
2018-12-14T02:30:45.277Z,12.10
2018-12-14T02:33:11.572Z,12.70
2018-12-14T02:35:37.848Z,13.83
2018-12-14T02:38:04.137Z,13.07
2018-12-14T02:40:30.492Z,12.37
2018-12-14T02:42:56.728Z,12.73
2018-12-14T02:45:22.981Z,12.40
2018-12-14T02:47:49.306Z,12.63
2018-12-14T02:50:16.325Z,13.67
2018-12-14T02:52:42.630Z,12.03
2018-12-14T02:55:08.893Z,12.30
2018-12-14T02:57:35.170Z,12.70
2018-12-14T03:00:01.480Z,13.40
2018-12-14T03:02:28.504Z,12.10
2018-12-14T03:04:54.798Z,13.53
2018-12-14T03:07:21.062Z,13.33
2018-12-14T03:09:47.325Z,12.90
2018-12-14T03:12:13.574Z,12.63
2018-12-14T03:14:39.906Z,12.60
2018-12-14T03:17:06.893Z,12.13
2018-12-14T03:19:33.393Z,12.47
2018-12-14T03:21:59.658Z,12.07
2018-12-14T03:24:25.914Z,12.27
2018-12-14T03:26:52.183Z,13.07
2018-12-14T03:29:18.457Z,12.83
2018-12-14T03:31:45.598Z,13.47
2018-12-14T03:34:11.836Z,12.50
2018-12-14T03:36:38.973Z,13.23
2018-12-14T03:39:05.515Z,12.40
2018-12-14T03:41:32.485Z,13.07
2018-12-14T03:43:58.738Z,12.90
2018-12-14T03:46:25.338Z,14.07
2018-12-14T03:48:51.572Z,12.57
2018-12-14T03:51:17.847Z,12.93
2018-12-14T03:53:44.085Z,14.40
2018-12-14T03:56:10.353Z,13.20
2018-12-14T03:58:36.581Z,11.93
2018-12-14T04:01:02.976Z,11.80
2018-12-14T04:03:29.978Z,12.17
2018-12-14T04:05:56.233Z,12.60
2018-12-14T04:08:22.496Z,12.43
2018-12-14T04:10:48.825Z,11.77
2018-12-14T04:13:15.108Z,13.33
2018-12-14T04:15:41.391Z,12.60
2018-12-14T04:18:07.695Z,12.60
2018-12-14T04:20:33.963Z,12.87
2018-12-14T04:23:00.201Z,12.50
2018-12-14T04:25:26.480Z,13.17
2018-12-14T04:27:52.744Z,13.10
2018-12-14T04:30:19.060Z,13.00
2018-12-14T04:32:46.049Z,13.10
2018-12-14T04:35:12.309Z,12.83
2018-12-14T04:37:38.599Z,12.07
2018-12-14T04:40:04.875Z,13.30
2018-12-14T04:42:31.128Z,12.37
2018-12-14T04:44:57.645Z,12.83
2018-12-14T04:47:24.660Z,12.30
2018-12-14T04:49:50.916Z,12.50
2018-12-14T04:52:17.905Z,13.47
2018-12-14T04:54:44.167Z,12.93
2018-12-14T04:57:10.393Z,12.27
2018-12-14T04:59:36.632Z,12.40
2018-12-14T05:02:03.643Z,13.10
2018-12-14T05:04:29.891Z,11.90
2018-12-14T05:06:56.363Z,12.43
2018-12-14T05:09:22.589Z,12.27
2018-12-14T05:11:49.573Z,12.20
2018-12-14T05:14:16.114Z,12.47
2018-12-14T05:16:42.352Z,13.03
2018-12-14T05:19:08.572Z,13.27
2018-12-14T05:21:35.148Z,13.40
2018-12-14T05:24:02.145Z,12.17
2018-12-14T05:26:29.039Z,11.97
2018-12-14T05:28:55.436Z,11.97
2018-12-14T05:31:21.825Z,12.83
2018-12-14T05:33:48.347Z,12.57
2018-12-14T05:36:14.649Z,13.27
2018-12-14T05:38:41.707Z,13.63
2018-12-14T05:41:08.988Z,13.23
2018-12-14T05:43:35.220Z,12.97
2018-12-14T05:46:01.454Z,12.70
2018-12-14T05:48:27.705Z,14.33
2018-12-14T05:50:53.926Z,13.47
2018-12-14T05:53:20.192Z,13.13
2018-12-14T05:55:47.560Z,13.37
2018-12-14T05:58:13.877Z,13.10
2018-12-14T06:00:40.125Z,11.97
2018-12-14T06:03:06.679Z,12.90
2018-12-14T06:05:32.933Z,13.57
2018-12-14T06:07:59.173Z,13.00
2018-12-14T06:10:25.440Z,13.23
2018-12-14T06:12:52.404Z,11.90
2018-12-14T06:15:18.664Z,12.20
2018-12-14T06:17:45.245Z,13.40
2018-12-14T06:20:12.249Z,13.53
2018-12-14T06:22:38.514Z,12.53
2018-12-14T06:25:04.844Z,14.03
2018-12-14T06:27:31.076Z,13.53
2018-12-14T06:29:58.096Z,13.63
2018-12-14T06:32:24.342Z,12.53
2018-12-14T06:34:51.400Z,13.27
2018-12-14T06:37:18.460Z,12.70
2018-12-14T06:39:44.727Z,11.93
2018-12-14T06:42:10.998Z,12.93
2018-12-14T06:44:38.376Z,12.60
2018-12-14T06:47:04.631Z,12.30
2018-12-14T06:49:30.894Z,12.13
2018-12-14T06:51:57.341Z,12.00
2018-12-14T06:54:24.326Z,12.47
2018-12-14T06:56:50.576Z,11.60
2018-12-14T06:59:16.824Z,12.93
2018-12-14T07:01:43.809Z,13.50
2018-12-14T07:04:10.432Z,12.67
2018-12-14T07:06:36.666Z,11.80
2018-12-14T07:09:02.957Z,11.43
2018-12-14T07:11:29.192Z,11.77
2018-12-14T07:13:55.430Z,12.47
2018-12-14T07:16:22.415Z,12.63
2018-12-14T07:18:48.656Z,12.67
2018-12-14T07:21:14.908Z,12.67
2018-12-14T07:23:41.140Z,12.30
2018-12-14T07:26:07.628Z,12.40
2018-12-14T07:28:33.864Z,12.83
2018-12-14T07:31:00.152Z,12.37
2018-12-14T07:33:27.113Z,12.60
2018-12-14T07:35:53.352Z,12.57
2018-12-14T07:38:19.588Z,13.20
2018-12-14T07:40:45.837Z,12.47
2018-12-14T07:43:12.093Z,12.63
2018-12-14T07:45:39.111Z,11.77
2018-12-14T07:48:05.389Z,13.30
2018-12-14T07:50:32.944Z,11.57
2018-12-14T07:52:59.368Z,11.60
2018-12-14T07:55:26.377Z,13.70
2018-12-14T07:57:52.685Z,12.60
2018-12-14T08:00:18.930Z,12.53
2018-12-14T08:02:45.197Z,12.73
2018-12-14T08:05:12.175Z,13.60
2018-12-14T08:07:38.488Z,12.13
2018-12-14T08:10:04.774Z,12.47
2018-12-14T08:12:31.275Z,12.90
2018-12-14T08:14:57.690Z,13.97
2018-12-14T08:17:24.759Z,13.27
2018-12-14T08:19:51.022Z,13.07
2018-12-14T08:22:17.311Z,12.20
2018-12-14T08:24:43.600Z,12.57
2018-12-14T08:27:09.930Z,12.80
2018-12-14T08:29:36.952Z,13.23
2018-12-14T08:32:03.452Z,11.87
2018-12-14T08:34:29.876Z,13.93
2018-12-14T08:36:56.964Z,12.90
2018-12-14T08:39:23.236Z,13.27
2018-12-14T08:41:49.637Z,13.00
2018-12-14T08:44:15.938Z,13.23
2018-12-14T08:46:42.241Z,13.73
2018-12-14T08:49:08.711Z,12.77
2018-12-14T08:51:35.020Z,12.20
2018-12-14T08:54:02.083Z,12.60
2018-12-14T08:56:28.466Z,12.47
2018-12-14T08:58:54.867Z,13.13
2018-12-14T09:01:21.858Z,12.83
2018-12-14T09:03:48.158Z,13.00
2018-12-14T09:06:15.189Z,12.80
2018-12-14T09:08:42.224Z,12.37
2018-12-14T09:11:08.632Z,13.60
2018-12-14T09:13:35.234Z,12.67
2018-12-14T09:16:01.561Z,13.50
2018-12-14T09:18:27.858Z,12.97
2018-12-14T09:20:54.246Z,12.83
2018-12-14T09:23:20.513Z,13.47
2018-12-14T09:25:46.782Z,11.60
2018-12-14T09:28:13.049Z,12.53
2018-12-14T09:30:42.612Z,13.80
2018-12-14T09:33:05.961Z,13.27
2018-12-14T09:35:32.235Z,12.63
2018-12-14T09:37:58.667Z,12.93
2018-12-14T09:40:25.353Z,12.17
2018-12-14T09:42:52.365Z,12.33
2018-12-14T09:45:19.451Z,13.57
2018-12-14T09:47:45.738Z,12.67
2018-12-14T09:50:12.008Z,12.53
2018-12-14T09:52:38.325Z,12.57
2018-12-14T09:55:05.543Z,12.30
2018-12-14T09:57:31.818Z,13.63
2018-12-14T09:59:58.068Z,13.20
2018-12-14T10:02:24.684Z,12.73
2018-12-14T10:04:51.143Z,11.97
2018-12-14T10:07:17.524Z,12.33
2018-12-14T10:09:44.602Z,12.40
2018-12-14T10:12:10.898Z,12.40
2018-12-14T10:14:37.894Z,12.13
2018-12-14T10:17:04.281Z,12.77
2018-12-14T10:19:31.405Z,12.63
2018-12-14T10:21:57.664Z,12.47
2018-12-14T10:24:24.695Z,12.50
2018-12-14T10:26:50.918Z,13.97
2018-12-14T10:29:17.917Z,12.37
2018-12-14T10:31:44.296Z,12.57
2018-12-14T10:34:10.567Z,12.13
2018-12-14T10:36:37.111Z,12.67
2018-12-14T10:39:03.444Z,12.33
2018-12-14T10:41:30.396Z,12.73
2018-12-14T10:43:56.660Z,12.63
2018-12-14T10:46:22.955Z,14.30
2018-12-14T10:48:49.261Z,12.60
2018-12-14T10:51:15.527Z,11.77
2018-12-14T10:53:41.781Z,12.40
2018-12-14T10:56:08.111Z,12.57
2018-12-14T10:58:35.144Z,12.87
2018-12-14T11:01:07.521Z,12.47
2018-12-14T11:03:33.861Z,13.20
2018-12-14T11:06:00.121Z,14.13
2018-12-14T11:08:26.475Z,13.57
2018-12-14T11:10:52.750Z,12.60
2018-12-14T11:13:19.748Z,13.73
2018-12-14T11:15:46.003Z,12.70
2018-12-14T11:18:12.352Z,13.70
2018-12-14T11:20:39.398Z,14.30
2018-12-14T11:23:06.380Z,13.43
2018-12-14T11:25:32.703Z,13.50
2018-12-14T11:28:00.296Z,13.17
2018-12-14T11:30:26.598Z,14.20
2018-12-14T11:32:52.886Z,13.33
2018-12-14T11:35:19.341Z,13.10
2018-12-14T11:37:45.634Z,13.90
2018-12-14T11:40:11.968Z,13.97
2018-12-14T11:42:38.317Z,14.20
2018-12-14T11:45:05.365Z,13.63
2018-12-14T11:47:31.668Z,13.80
2018-12-14T11:49:57.977Z,13.40
2018-12-14T11:52:25.003Z,13.73
2018-12-14T11:54:51.364Z,13.23
2018-12-14T11:57:18.357Z,13.63
2018-12-14T11:59:45.811Z,12.57
2018-12-14T12:02:19.035Z,12.83
2018-12-14T12:04:53.422Z,14.00
2018-12-14T12:07:24.220Z,13.37
2018-12-14T12:09:52.848Z,13.10
2018-12-14T12:12:21.952Z,12.90
2018-12-14T12:14:49.539Z,12.70
2018-12-14T12:17:18.376Z,13.70
2018-12-14T12:19:44.887Z,13.13
2018-12-14T12:22:11.171Z,13.13
2018-12-14T12:24:37.487Z,13.83
2018-12-14T12:27:03.834Z,13.30
2018-12-14T12:29:31.317Z,13.17
2018-12-14T12:32:00.659Z,13.57
2018-12-14T12:34:27.100Z,13.50
2018-12-14T12:36:53.501Z,12.37
2018-12-14T12:39:19.817Z,12.80
2018-12-14T12:41:47.060Z,12.23
2018-12-14T12:44:14.319Z,13.17
2018-12-14T12:46:40.573Z,12.87
2018-12-14T12:49:06.809Z,12.77
2018-12-14T12:51:33.160Z,13.50
2018-12-14T12:53:59.404Z,13.67
2018-12-14T12:56:25.694Z,13.67
2018-12-14T12:58:51.948Z,13.37
2018-12-14T13:01:18.196Z,13.47
2018-12-14T13:03:45.168Z,13.40
2018-12-14T13:06:11.412Z,14.03
2018-12-14T13:08:37.628Z,13.63
2018-12-14T13:11:03.873Z,13.17
2018-12-14T13:13:30.121Z,13.87
2018-12-14T13:15:56.390Z,14.33
2018-12-14T13:18:22.621Z,13.07
2018-12-14T13:20:48.897Z,13.47
2018-12-14T13:23:15.151Z,14.27
2018-12-14T13:25:41.419Z,13.70
2018-12-14T13:28:08.662Z,13.83
2018-12-14T13:30:35.100Z,14.60
2018-12-14T13:33:01.395Z,13.40
2018-12-14T13:35:28.729Z,13.83
2018-12-14T13:37:55.104Z,13.57
2018-12-14T13:40:21.350Z,14.27
2018-12-14T13:42:48.216Z,14.73
2018-12-14T13:45:14.524Z,14.53
2018-12-14T13:47:40.805Z,14.73
2018-12-14T13:50:07.082Z,12.57
2018-12-14T13:52:33.325Z,15.00
2018-12-14T13:54:59.644Z,14.40
2018-12-14T13:57:26.031Z,14.83
2018-12-14T13:59:53.095Z,15.53
2018-12-14T14:02:19.562Z,14.40
2018-12-14T14:04:45.980Z,15.70
2018-12-14T14:07:12.240Z,15.93
2018-12-14T14:09:38.599Z,15.33
2018-12-14T14:12:05.630Z,13.97
2018-12-14T14:14:31.851Z,14.30
2018-12-14T14:16:58.100Z,14.40
2018-12-14T14:19:25.236Z,14.50
2018-12-14T14:21:52.156Z,13.47
2018-12-14T14:24:19.272Z,15.00
2018-12-14T14:26:45.607Z,14.20
2018-12-14T14:29:11.840Z,14.23
2018-12-14T14:31:38.169Z,13.50
2018-12-14T14:34:04.516Z,14.40
2018-12-14T14:36:30.772Z,15.63
2018-12-14T14:38:58.248Z,14.17
2018-12-14T14:41:24.475Z,14.43
2018-12-14T14:43:51.447Z,14.90
2018-12-14T14:46:18.013Z,14.83
2018-12-14T14:48:44.283Z,15.20
2018-12-14T14:51:10.624Z,15.20
2018-12-14T14:53:36.915Z,14.63
2018-12-14T14:56:03.192Z,14.00
2018-12-14T14:58:29.433Z,14.33
2018-12-14T15:00:55.721Z,16.23
2018-12-14T15:03:22.693Z,13.83
2018-12-14T15:05:49.085Z,13.73
2018-12-14T15:08:16.964Z,14.60
2018-12-14T15:10:43.211Z,14.53
2018-12-14T15:13:09.646Z,13.67
2018-12-14T15:15:35.952Z,15.60
2018-12-14T15:18:02.213Z,16.70
2018-12-14T15:20:28.538Z,15.67
2018-12-14T15:22:54.950Z,14.77
2018-12-14T15:25:21.953Z,14.03
2018-12-14T15:27:48.248Z,14.77
2018-12-14T15:30:15.381Z,13.53
2018-12-14T15:32:41.602Z,14.63
2018-12-14T15:35:07.887Z,14.70
2018-12-14T15:37:34.241Z,14.20
2018-12-14T15:40:01.266Z,14.70
2018-12-14T15:42:27.505Z,14.67
2018-12-14T15:44:53.892Z,13.53
2018-12-14T15:47:20.117Z,14.50
2018-12-14T15:49:46.395Z,14.93
2018-12-14T15:52:12.681Z,14.53
2018-12-14T15:54:38.967Z,14.80
2018-12-14T15:57:06.009Z,14.77
2018-12-14T15:59:32.274Z,13.97
2018-12-14T16:01:58.552Z,14.87
2018-12-14T16:04:24.776Z,13.00
2018-12-14T16:06:51.089Z,14.73
2018-12-14T16:09:17.359Z,15.00
2018-12-14T16:11:44.348Z,14.27
2018-12-14T16:14:10.678Z,14.93
2018-12-14T16:16:36.969Z,14.30
2018-12-14T16:19:04.096Z,14.73
2018-12-14T16:21:30.355Z,14.47
2018-12-14T16:23:56.636Z,14.60
2018-12-14T16:26:22.947Z,14.93
2018-12-14T16:28:49.478Z,15.30
2018-12-14T16:31:15.740Z,14.77
2018-12-14T16:33:42.809Z,13.97
2018-12-14T16:36:09.133Z,14.43
2018-12-14T16:38:36.134Z,14.10
2018-12-14T16:41:02.400Z,15.07
2018-12-14T16:43:29.373Z,15.60
2018-12-14T16:45:55.607Z,14.77
2018-12-14T16:48:21.840Z,13.67
2018-12-14T16:50:48.064Z,15.40
2018-12-14T16:53:14.328Z,15.07
2018-12-14T16:55:40.592Z,14.73
2018-12-14T16:58:07.604Z,15.27
2018-12-14T17:00:34.620Z,14.47
2018-12-14T17:03:00.855Z,16.03
2018-12-14T17:05:27.137Z,16.27
2018-12-14T17:07:53.463Z,16.13
2018-12-14T17:10:20.436Z,16.20
2018-12-14T17:12:46.705Z,15.20
2018-12-14T17:15:13.268Z,15.77
2018-12-14T17:17:39.524Z,15.93
2018-12-14T17:20:05.817Z,14.30
2018-12-14T17:22:32.099Z,16.20
2018-12-14T17:24:58.398Z,14.80
2018-12-14T17:27:25.741Z,15.60
2018-12-14T17:29:52.815Z,15.10
2018-12-14T17:32:19.083Z,14.50
2018-12-14T17:34:45.340Z,15.13
2018-12-14T17:37:12.360Z,14.53
2018-12-14T17:39:38.985Z,14.17
2018-12-14T17:42:05.278Z,14.93
2018-12-14T17:44:31.611Z,15.73
2018-12-14T17:46:57.933Z,13.83
2018-12-14T17:49:24.224Z,14.20
2018-12-14T17:51:51.508Z,15.17
2018-12-14T17:54:17.778Z,15.37
2018-12-14T17:56:44.091Z,14.87
2018-12-14T17:59:10.440Z,14.37
2018-12-14T18:01:36.740Z,14.20
2018-12-14T18:04:04.006Z,13.67
2018-12-14T18:16:05.583Z,13.93
2018-12-14T18:18:32.548Z,14.80
2018-12-14T18:20:58.804Z,14.07
2018-12-14T18:23:25.036Z,13.80
2018-12-14T18:25:51.272Z,14.10
2018-12-14T18:28:17.847Z,15.30
2018-12-14T18:30:43.861Z,13.70
2018-12-14T18:33:10.966Z,13.80
2018-12-14T18:35:37.187Z,13.23
2018-12-14T18:38:03.488Z,12.83
2018-12-14T18:40:29.732Z,13.57
2018-12-14T18:42:55.982Z,13.83
2018-12-14T18:45:22.967Z,13.77
2018-12-14T18:47:49.938Z,13.33
2018-12-14T18:50:16.191Z,13.33
2018-12-14T18:52:42.427Z,12.70
2018-12-14T18:55:08.675Z,12.73
2018-12-14T18:57:34.928Z,13.07
2018-12-14T19:00:01.980Z,13.13
2018-12-14T19:02:28.244Z,12.80
2018-12-14T19:04:54.482Z,12.20
2018-12-14T19:07:20.780Z,13.57
2018-12-14T19:09:48.043Z,12.30
2018-12-14T19:12:15.209Z,13.63
2018-12-14T19:14:41.507Z,12.30
2018-12-14T19:17:08.380Z,13.07
2018-12-14T19:19:34.697Z,12.90
2018-12-14T19:22:00.956Z,13.20
2018-12-14T19:24:27.188Z,13.03
2018-12-14T19:26:53.441Z,13.47
2018-12-14T19:29:21.336Z,13.37
2018-12-14T19:31:47.646Z,14.40
2018-12-14T19:34:13.976Z,14.07
2018-12-14T19:36:40.291Z,13.30
2018-12-14T19:39:07.337Z,13.50
2018-12-14T19:41:34.355Z,13.90
2018-12-14T19:44:00.610Z,13.77
2018-12-14T19:46:26.870Z,16.90
2018-12-14T19:48:53.180Z,12.90
2018-12-14T19:51:20.227Z,16.63
2018-12-14T19:53:46.473Z,13.90
2018-12-14T19:56:12.709Z,12.53
2018-12-14T19:58:38.994Z,14.13
2018-12-14T20:01:06.107Z,11.63
2018-12-14T20:03:32.483Z,12.20
2018-12-14T20:05:58.984Z,11.67
2018-12-14T20:08:25.275Z,13.23
2018-12-14T20:10:51.519Z,13.27
2018-12-14T20:13:17.770Z,13.43
2018-12-14T20:15:44.064Z,14.07
2018-12-14T20:18:10.410Z,13.80
2018-12-14T20:20:36.691Z,13.60
2018-12-14T20:23:03.732Z,13.20
2018-12-14T20:25:30.758Z,14.00
2018-12-14T20:27:57.053Z,12.57
2018-12-14T20:30:23.374Z,13.33
2018-12-14T20:32:49.928Z,13.50
2018-12-14T20:35:16.302Z,13.00
2018-12-14T20:37:42.635Z,12.00
2018-12-14T20:40:08.912Z,12.63
2018-12-14T20:42:35.479Z,12.40
2018-12-14T20:48:28.937Z,12.63
2018-12-14T20:54:16.407Z,11.37
2018-12-14T20:56:42.776Z,10.67
2018-12-14T20:59:09.160Z,11.30
2018-12-14T21:01:35.589Z,11.47
2018-12-14T21:04:02.654Z,11.27
2018-12-14T21:06:28.959Z,11.07
2018-12-14T21:08:56.232Z,10.40
2018-12-14T21:11:23.320Z,10.20
2018-12-14T21:13:49.579Z,10.23
2018-12-14T21:16:16.594Z,10.13
2018-12-14T21:18:43.750Z,9.77
2018-12-14T21:21:10.054Z,10.67
2018-12-14T21:23:36.324Z,10.93
2018-12-14T21:26:02.568Z,11.23
2018-12-14T21:28:28.831Z,10.53
2018-12-14T21:30:55.226Z,10.90
2018-12-14T21:33:21.488Z,11.07
2018-12-14T21:35:48.491Z,10.73
2018-12-14T21:38:15.494Z,11.27
2018-12-14T21:40:41.755Z,11.40
2018-12-14T21:43:08.781Z,12.17
2018-12-14T21:45:35.052Z,11.20
2018-12-14T21:48:02.070Z,10.93
2018-12-14T21:50:28.343Z,11.30
2018-12-14T21:52:54.675Z,11.90
2018-12-14T21:55:21.651Z,12.03
2018-12-14T21:57:47.945Z,11.67
2018-12-14T22:00:14.276Z,10.00
2018-12-14T22:02:40.642Z,11.67
2018-12-14T22:05:06.943Z,11.20
2018-12-14T22:07:34.343Z,10.67
2018-12-14T22:10:00.697Z,10.90
2018-12-14T22:12:27.015Z,11.40
2018-12-14T22:14:53.408Z,11.70
2018-12-14T22:17:19.762Z,11.93
2018-12-14T22:19:46.615Z,10.90
2018-12-14T22:22:12.961Z,11.10
2018-12-14T22:24:39.218Z,11.37
2018-12-14T22:27:05.490Z,11.27
2018-12-14T22:29:32.479Z,10.83
2018-12-14T22:31:59.525Z,12.23
2018-12-14T22:34:26.568Z,11.30
2018-12-14T22:36:53.600Z,10.90
2018-12-14T22:39:19.949Z,11.20
2018-12-14T22:41:46.251Z,11.60
2018-12-14T22:44:13.289Z,11.27
2018-12-14T22:46:45.454Z,11.10
2018-12-14T22:49:06.233Z,11.50
2018-12-14T22:51:32.549Z,10.93
2018-12-14T22:53:58.838Z,11.77
2018-12-14T22:56:25.963Z,11.70
2018-12-14T22:58:52.223Z,11.10
2018-12-14T23:01:19.252Z,11.23
2018-12-14T23:03:46.755Z,11.47
2018-12-14T23:06:13.018Z,10.77
2018-12-14T23:08:39.267Z,11.83
2018-12-14T23:11:05.516Z,12.30
2018-12-14T23:13:32.515Z,11.20
2018-12-14T23:15:58.855Z,11.23
2018-12-14T23:18:25.932Z,11.77
2018-12-14T23:20:52.916Z,11.33
2018-12-14T23:23:19.184Z,12.17
2018-12-14T23:25:45.455Z,12.07
2018-12-14T23:28:12.608Z,11.80
2018-12-14T23:30:38.986Z,12.23
2018-12-14T23:33:05.263Z,11.83
2018-12-14T23:35:31.484Z,12.87
2018-12-14T23:37:57.737Z,11.70
2018-12-14T23:40:24.983Z,11.60
2018-12-14T23:42:51.240Z,11.80
2018-12-14T23:45:17.482Z,11.93
2018-12-14T23:47:43.748Z,11.47
2018-12-14T23:50:10.026Z,11.40
2018-12-14T23:52:36.280Z,10.83
2018-12-14T23:55:03.318Z,11.13
2018-12-14T23:57:29.568Z,11.50
2018-12-14T23:59:56.589Z,11.70
